Royer Lake, Indiana
Current Conditions -  °F | °C
As of 7:15 PM on Sunday 23 Nov 2014 (Local Time) from KIRS Reporting Station
Moderate Rain Moderate Rain  
Wind Chill: 11°   Ceiling: 4000
Heat Index: 11°   Visibility: 7mi
Dew Point:   Wind: 15mph
Humidity: 88%   Direction: 130°SE
Pressure: 29.43"   Gusts: 20mph
Location:  41.6561°N, 85.3683°W
Report Text: KIRS 240015Z AUTO 13013G17KT 7SM RA SCT013 BKN040 OVC055 11/09 A2943 RMK AO2
Loading
Personal Weather Stations






























Interactive Weather Map New forecast layout! Learn more

10-Day Weather Forecast

Advertisements
Track Severe Weather on mobile